Time;durP1;ratioP1;P1;durP2;ratioP2;P2;SDS_P1;SDS_P2;PMS_P1;PMS_P2;Temp;Humidity;BMP_temperature;BMP_pressure;BME280_temperature;BME280_humidity;BME280_pressure;Samples;Min_cycle;Max_cycle;Signal;HPM_P1;HPM_P2
2024/03/11 09:11:27;;;;;;;7.27;2.70;;;10.00;99.90;;;;;;4923907;23;20276;-74
2024/03/11 09:13:54;;;;;;;5.73;2.67;;;10.10;99.90;;;;;;4934949;29;20208;-75
2024/03/11 09:16:21;;;;;;;7.03;3.23;;;10.20;99.90;;;;;;4934977;29;20819;-75
2024/03/11 09:18:48;;;;;;;6.43;3.00;;;10.20;99.90;;;;;;4931195;29;20225;-75
2024/03/11 09:21:15;;;;;;;6.10;2.80;;;10.20;99.90;;;;;;4923202;29;20220;-75
2024/03/11 09:23:42;;;;;;;5.23;2.90;;;10.30;99.90;;;;;;4920457;29;20288;-74
2024/03/11 09:26:10;;;;;;;6.00;2.70;;;10.50;99.90;;;;;;4934498;29;20741;-76
2024/03/11 09:28:38;;;;;;;5.97;2.63;;;10.40;99.90;;;;;;4942604;28;20228;-76
2024/03/11 09:31:05;;;;;;;5.27;2.80;;;10.50;99.90;;;;;;4935006;29;20235;-76
2024/03/11 09:33:31;;;;;;;5.13;2.77;;;10.40;99.90;;;;;;4935060;29;20212;-74
2024/03/11 09:35:58;;;;;;;5.97;3.03;;;10.40;99.90;;;;;;4934946;29;20296;-73
2024/03/11 09:38:26;;;;;;;7.73;3.00;;;10.50;99.90;;;;;;4934696;29;20229;-75
2024/03/11 09:40:53;;;;;;;6.73;2.77;;;10.60;99.90;;;;;;4935377;29;20212;-74
2024/03/11 09:43:20;;;;;;;6.07;2.67;;;10.50;99.90;;;;;;4934878;29;20217;-76
2024/03/11 09:45:51;;;;;;;6.57;2.83;;;10.40;99.90;;;;;;4934633;29;20666;-76
2024/03/11 09:48:18;;;;;;;4.73;2.77;;;10.30;99.90;;;;;;4934874;29;20229;-74
2024/03/11 09:50:45;;;;;;;6.37;3.00;;;10.40;99.90;;;;;;4934616;29;20853;-74
2024/03/11 09:53:18;;;;;;;5.17;2.37;;;10.40;99.90;;;;;;4931707;29;20244;-77
2024/03/11 09:55:45;;;;;;;6.43;2.80;;;10.30;99.90;;;;;;4932372;29;20244;-76
2024/03/11 09:58:15;;;;;;;6.23;3.30;;;10.50;99.90;;;;;;4936596;29;20229;-78
2024/03/11 10:00:49;;;;;;;6.90;2.87;;;10.50;99.90;;;;;;4937093;29;20572;-77
2024/03/11 10:03:20;;;;;;;6.00;2.97;;;10.60;99.90;;;;;;4937799;29;20213;-76
2024/03/11 10:05:47;;;;;;;4.70;2.70;;;10.80;99.90;;;;;;4938478;29;20288;-75
2024/03/11 10:08:20;;;;;;;8.20;3.00;;;10.90;99.90;;;;;;4936555;29;20705;-76
2024/03/11 10:11:12;;;;;;;5.07;2.70;;;10.70;99.90;;;;;;4936299;29;20259;-78
2024/03/11 10:13:39;;;;;;;4.90;2.60;;;10.70;99.90;;;;;;4936503;29;20587;-79
2024/03/11 10:16:17;;;;;;;5.70;3.00;;;10.60;99.90;;;;;;4936449;29;20256;-78
2024/03/11 10:19:00;;;;;;;6.27;2.70;;;10.60;99.90;;;;;;4936079;29;20240;-78
2024/03/11 10:21:28;;;;;;;5.60;2.40;;;10.70;99.90;;;;;;4933971;29;20219;-73
2024/03/11 10:23:59;;;;;;;5.17;2.47;;;10.60;99.90;;;;;;4935786;29;20219;-74
2024/03/11 10:26:30;;;;;;;4.40;2.43;;;10.80;99.90;;;;;;4936227;29;20291;-77
2024/03/11 10:28:57;;;;;;;5.77;2.70;;;10.80;99.90;;;;;;4935796;29;20235;-77
2024/03/11 10:31:27;;;;;;;4.03;2.00;;;10.70;99.90;;;;;;4935841;29;20260;-80
2024/03/11 10:34:09;;;;;;;3.57;2.17;;;10.70;99.90;;;;;;4935646;29;20213;-78
2024/03/11 10:36:39;;;;;;;4.70;2.33;;;10.70;99.90;;;;;;4935087;29;20240;-77
2024/03/11 10:39:18;;;;;;;5.00;2.47;;;10.80;99.90;;;;;;4935886;29;20233;-75
2024/03/11 10:41:45;;;;;;;4.03;2.00;;;10.70;99.90;;;;;;4935830;29;20316;-75
2024/03/11 10:44:16;;;;;;;4.13;2.53;;;10.70;99.90;;;;;;4935785;29;20269;-75
2024/03/11 10:46:43;;;;;;;6.00;2.50;;;10.80;99.90;;;;;;4936027;29;20299;-76
2024/03/11 10:49:13;;;;;;;4.67;2.50;;;10.80;99.90;;;;;;4935245;29;20232;-76
2024/03/11 10:51:44;;;;;;;4.37;2.20;;;10.70;99.90;;;;;;4935382;29;20221;-74
2024/03/11 10:54:13;;;;;;;4.13;1.90;;;10.60;99.90;;;;;;4935437;29;20295;-76
2024/03/11 10:56:41;;;;;;;4.83;2.07;;;10.60;99.90;;;;;;4935545;29;20291;-77
2024/03/11 10:59:14;;;;;;;4.53;2.30;;;10.60;99.90;;;;;;4935681;29;20316;-74
2024/03/11 11:01:46;;;;;;;5.23;2.53;;;10.60;99.90;;;;;;4936822;29;20260;-72
2024/03/11 11:04:19;;;;;;;3.73;1.90;;;10.40;99.90;;;;;;4943561;29;20208;-72
2024/03/11 11:06:49;;;;;;;3.90;2.13;;;10.30;99.90;;;;;;4936332;29;20625;-72
2024/03/11 11:09:19;;;;;;;2.97;1.70;;;10.40;99.90;;;;;;4936635;29;20744;-73
2024/03/11 11:11:51;;;;;;;3.93;1.90;;;10.30;99.90;;;;;;4936746;29;20224;-72
2024/03/11 11:14:19;;;;;;;4.47;2.20;;;10.40;99.90;;;;;;4936762;29;20256;-73
2024/03/11 11:16:46;;;;;;;3.53;1.90;;;10.50;99.90;;;;;;4936582;29;20276;-73
2024/03/11 11:19:19;;;;;;;3.60;2.13;;;10.60;99.90;;;;;;4936302;29;20280;-73
2024/03/11 11:21:47;;;;;;;3.20;1.87;;;10.60;99.90;;;;;;4936368;29;20610;-73
2024/03/11 11:24:30;;;;;;;4.03;2.30;;;10.60;99.90;;;;;;4936200;29;20771;-73
2024/03/11 11:26:58;;;;;;;3.87;2.10;;;10.70;99.90;;;;;;4936382;29;20213;-72
2024/03/11 11:29:27;;;;;;;3.10;1.87;;;10.70;99.90;;;;;;4936131;29;20634;-72
2024/03/11 11:32:02;;;;;;;3.90;2.07;;;10.80;99.90;;;;;;4936655;29;20209;-73
2024/03/11 11:34:49;;;;;;;3.77;1.83;;;10.80;99.90;;;;;;4936626;29;20291;-73
2024/03/11 11:37:32;;;;;;;3.90;2.03;;;10.90;99.90;;;;;;4936223;29;20236;-72
2024/03/11 11:40:19;;;;;;;3.80;2.10;;;10.90;99.90;;;;;;4935408;29;20265;-73
2024/03/11 11:42:48;;;;;;;4.20;2.30;;;11.00;99.90;;;;;;4936392;29;20219;-73
2024/03/11 11:45:54;;;;;;;5.87;2.10;;;11.00;99.90;;;;;;4936595;29;20209;-72
2024/03/11 11:48:25;;;;;;;3.37;1.73;;;10.80;99.90;;;;;;4936418;29;20233;-72
2024/03/11 11:50:57;;;;;;;4.23;2.30;;;10.80;99.90;;;;;;4935953;29;20252;-73
2024/03/11 11:53:32;;;;;;;4.80;2.67;;;10.80;99.90;;;;;;4931134;29;20205;-73
2024/03/11 11:56:01;;;;;;;3.97;2.10;;;10.90;99.90;;;;;;4930694;29;20287;-73
2024/03/11 11:58:28;;;;;;;4.10;2.10;;;11.10;99.90;;;;;;4935883;29;20315;-73
2024/03/11 12:01:00;;;;;;;3.90;2.00;;;11.20;99.90;;;;;;4954658;29;20263;-74
2024/03/11 12:03:31;;;;;;;6.30;2.63;;;11.30;99.90;;;;;;4946728;29;20746;-74
2024/03/11 12:06:11;;;;;;;3.40;1.70;;;11.30;99.90;;;;;;4936086;29;20216;-74
2024/03/11 12:08:39;;;;;;;4.23;2.20;;;11.40;99.90;;;;;;4935523;29;20220;-78
2024/03/11 12:11:11;;;;;;;3.97;2.00;;;11.50;99.90;;;;;;4938336;29;20212;-74
2024/03/11 12:13:40;;;;;;;3.23;1.67;;;11.40;99.90;;;;;;4944943;29;20236;-74
2024/03/11 12:16:10;;;;;;;3.70;1.87;;;11.20;99.90;;;;;;4935649;29;20216;-73
2024/03/11 12:18:39;;;;;;;4.63;2.07;;;11.10;99.90;;;;;;4934725;29;20702;-77
2024/03/11 12:21:11;;;;;;;3.70;2.20;;;11.10;99.90;;;;;;4935808;29;20216;-76
2024/03/11 12:23:38;;;;;;;5.43;2.50;;;11.10;99.90;;;;;;4935468;29;20295;-77
2024/03/11 12:26:09;;;;;;;4.73;2.57;;;11.20;99.90;;;;;;4935148;29;20208;-75
2024/03/11 12:28:37;;;;;;;5.13;2.20;;;11.00;99.90;;;;;;4935350;29;20239;-75
2024/03/11 12:31:05;;;;;;;3.47;2.27;;;10.70;99.90;;;;;;4935727;29;20235;-77
2024/03/11 12:33:34;;;;;;;4.60;2.10;;;10.70;99.90;;;;;;4935428;29;20220;-76
2024/03/11 12:36:05;;;;;;;3.80;2.33;;;10.70;99.90;;;;;;4935686;29;20205;-76
2024/03/11 12:38:34;;;;;;;5.27;2.17;;;10.60;99.90;;;;;;4934924;29;20236;-76
2024/03/11 12:41:03;;;;;;;4.20;2.33;;;10.60;99.90;;;;;;4935722;29;20280;-74
2024/03/11 12:43:35;;;;;;;4.57;2.60;;;10.60;99.90;;;;;;4935097;29;20745;-77
2024/03/11 12:46:03;;;;;;;5.20;2.77;;;10.40;99.90;;;;;;4935250;29;20244;-76
2024/03/11 12:48:31;;;;;;;5.37;2.90;;;10.40;99.90;;;;;;4939163;29;20585;-76
2024/03/11 12:51:00;;;;;;;5.13;2.60;;;10.60;99.90;;;;;;4935283;29;20216;-77
2024/03/11 12:53:29;;;;;;;8.27;3.17;;;10.60;99.90;;;;;;4935359;29;20209;-78
2024/03/11 12:56:04;;;;;;;4.53;2.33;;;10.70;99.90;;;;;;4935262;29;20255;-74
2024/03/11 12:58:33;;;;;;;4.57;2.43;;;10.60;99.90;;;;;;4935253;29;20236;-72
2024/03/11 13:01:09;;;;;;;4.73;2.60;;;10.50;99.90;;;;;;4935330;29;20212;-72
2024/03/11 13:03:39;;;;;;;4.93;2.33;;;10.40;99.90;;;;;;4934879;29;20256;-76
2024/03/11 13:06:09;;;;;;;5.13;3.17;;;10.10;99.90;;;;;;4935306;29;20213;-77
2024/03/11 13:08:41;;;;;;;5.83;2.67;;;10.20;99.90;;;;;;4934854;29;20601;-80
2024/03/11 13:11:10;;;;;;;7.50;2.70;;;10.10;99.90;;;;;;4935229;29;20220;-83
2024/03/11 13:13:38;;;;;;;4.90;2.63;;;10.10;99.90;;;;;;4935144;29;20240;-78
2024/03/11 13:16:07;;;;;;;6.33;3.07;;;10.10;99.90;;;;;;4935019;29;20212;-78
2024/03/11 13:18:35;;;;;;;5.10;2.67;;;10.20;99.90;;;;;;4934716;29;20236;-81
2024/03/11 13:21:05;;;;;;;5.97;3.23;;;10.30;99.90;;;;;;4935291;29;20268;-74
2024/03/11 13:23:32;;;;;;;7.60;3.30;;;10.30;99.90;;;;;;4934911;29;20212;-79
2024/03/11 13:26:00;;;;;;;9.40;3.70;;;10.30;99.90;;;;;;4935096;29;20239;-77
2024/03/11 13:28:29;;;;;;;8.87;4.13;;;10.30;99.90;;;;;;4934821;29;20279;-76
2024/03/11 13:30:57;;;;;;;6.67;3.40;;;10.30;99.90;;;;;;4938701;29;20205;-76
2024/03/11 13:33:25;;;;;;;9.83;4.40;;;10.40;99.90;;;;;;4938756;29;20305;-76
2024/03/11 13:35:53;;;;;;;10.07;4.63;;;10.40;99.90;;;;;;4938714;29;20217;-75
2024/03/11 13:38:21;;;;;;;9.43;4.57;;;10.40;99.90;;;;;;4938158;29;20241;-75
2024/03/11 13:40:49;;;;;;;8.43;4.10;;;10.40;99.90;;;;;;4938237;29;20209;-76
2024/03/11 13:43:16;;;;;;;11.87;4.30;;;10.40;99.90;;;;;;4937795;29;20224;-76
2024/03/11 13:45:49;;;;;;;10.67;5.00;;;10.40;99.90;;;;;;4938785;29;20276;-76
2024/03/11 13:48:19;;;;;;;9.93;4.80;;;10.30;99.90;;;;;;4945859;29;20235;-75
2024/03/11 13:50:47;;;;;;;9.97;5.03;;;10.30;99.90;;;;;;4938339;29;20208;-76
2024/03/11 13:53:14;;;;;;;10.97;4.57;;;10.40;99.90;;;;;;4938002;29;20220;-75
2024/03/11 13:55:43;;;;;;;13.67;5.93;;;10.40;99.90;;;;;;4938318;29;20241;-76
2024/03/11 13:58:10;;;;;;;14.93;6.33;;;10.30;99.90;;;;;;4938594;29;20323;-75
2024/03/11 14:00:40;;;;;;;15.47;6.20;;;10.20;99.90;;;;;;4937756;29;20244;-75
2024/03/11 14:03:10;;;;;;;16.20;6.70;;;10.30;99.90;;;;;;4937715;29;20213;-76
2024/03/11 14:05:37;;;;;;;15.53;5.87;;;10.40;99.90;;;;;;4937950;29;20205;-76
2024/03/11 14:08:04;;;;;;;16.10;6.50;;;10.30;99.90;;;;;;4937971;29;20734;-76
2024/03/11 14:10:31;;;;;;;13.53;5.47;;;10.40;99.90;;;;;;4937441;29;20215;-76
2024/03/11 14:12:59;;;;;;;13.37;4.73;;;10.40;99.90;;;;;;4938154;29;20240;-76
2024/03/11 14:15:26;;;;;;;15.43;5.77;;;10.30;99.90;;;;;;4938089;29;20215;-76
2024/03/11 14:17:53;;;;;;;11.50;5.57;;;10.20;99.90;;;;;;4937704;29;20740;-76
2024/03/11 14:20:24;;;;;;;13.87;5.73;;;10.30;99.90;;;;;;4937984;29;20236;-77
2024/03/11 14:22:52;;;;;;;13.17;5.77;;;10.40;99.90;;;;;;4937256;29;20316;-76
2024/03/11 14:25:20;;;;;;;13.53;6.60;;;10.40;99.90;;;;;;4937774;29;20233;-76
2024/03/11 14:27:49;;;;;;;11.13;5.07;;;10.40;99.90;;;;;;4937168;29;20721;-76
2024/03/11 14:30:17;;;;;;;11.53;4.90;;;10.30;99.90;;;;;;4937486;29;20255;-76
2024/03/11 14:32:44;;;;;;;13.70;5.80;;;10.30;99.90;;;;;;4937468;29;20267;-74
2024/03/11 14:35:13;;;;;;;12.27;5.33;;;10.20;99.90;;;;;;4925684;29;20287;-75
2024/03/11 14:37:42;;;;;;;11.93;5.17;;;10.20;99.90;;;;;;4936859;29;20241;-75
2024/03/11 14:40:12;;;;;;;13.60;5.43;;;10.10;99.90;;;;;;4938638;29;20208;-75
2024/03/11 14:42:39;;;;;;;14.43;4.97;;;10.20;99.90;;;;;;4936160;29;20216;-75
2024/03/11 14:45:07;;;;;;;11.60;5.50;;;10.10;99.90;;;;;;4936397;29;20213;-75
2024/03/11 14:47:36;;;;;;;14.70;5.37;;;10.10;99.90;;;;;;4936564;29;20319;-75
2024/03/11 14:50:15;;;;;;;10.23;4.50;;;10.20;99.90;;;;;;4934370;29;20207;-75
2024/03/11 14:52:43;;;;;;;10.73;4.80;;;10.10;99.90;;;;;;4935141;29;20200;-76
2024/03/11 14:55:10;;;;;;;10.47;4.50;;;10.10;99.90;;;;;;4936403;29;20740;-75
2024/03/11 14:57:41;;;;;;;11.20;4.83;;;10.20;99.90;;;;;;4936189;29;20245;-74
2024/03/11 15:00:13;;;;;;;11.07;5.33;;;10.30;99.90;;;;;;4936513;29;20657;-74
2024/03/11 15:02:42;;;;;;;11.00;5.17;;;10.30;99.90;;;;;;4934054;29;20212;-74
2024/03/11 15:05:18;;;;;;;10.60;5.03;;;10.30;99.90;;;;;;4936501;29;20304;-74
2024/03/11 15:07:56;;;;;;;11.40;4.80;;;10.20;99.90;;;;;;4934975;29;20283;-74
2024/03/11 15:10:23;;;;;;;11.13;5.53;;;10.20;99.90;;;;;;4933741;29;20220;-75
2024/03/11 15:12:51;;;;;;;11.60;4.60;;;10.20;99.90;;;;;;4932284;29;20229;-74
2024/03/11 15:15:20;;;;;;;11.87;5.40;;;10.30;99.90;;;;;;4935162;29;20213;-74
2024/03/11 15:17:47;;;;;;;12.10;4.77;;;10.20;99.90;;;;;;4936914;29;20236;-74
2024/03/11 15:20:14;;;;;;;13.33;5.23;;;10.20;99.90;;;;;;4936678;29;20270;-74
2024/03/11 15:22:41;;;;;;;12.03;4.97;;;10.10;99.90;;;;;;4936350;29;20236;-74
2024/03/11 15:25:10;;;;;;;10.77;4.40;;;10.00;99.90;;;;;;4934763;29;20215;-74
2024/03/11 15:27:38;;;;;;;11.07;4.40;;;10.00;99.90;;;;;;4936305;29;20264;-74
2024/03/11 15:30:07;;;;;;;11.70;4.60;;;10.00;99.90;;;;;;4940671;29;20209;-74
2024/03/11 15:32:34;;;;;;;11.47;4.40;;;10.00;99.90;;;;;;4936516;29;20662;-74
2024/03/11 15:35:02;;;;;;;11.57;5.13;;;9.90;99.90;;;;;;4936549;29;20656;-74
2024/03/11 15:37:29;;;;;;;12.10;4.63;;;9.90;99.90;;;;;;4936416;29;20233;-77
2024/03/11 15:39:56;;;;;;;11.70;4.10;;;9.80;99.90;;;;;;4936374;29;20201;-81
2024/03/11 15:42:25;;;;;;;13.30;5.30;;;9.80;99.90;;;;;;4936700;29;20676;-83
2024/03/11 15:44:52;;;;;;;9.63;4.30;;;9.80;99.90;;;;;;4936789;29;20659;-82
2024/03/11 15:47:19;;;;;;;10.57;4.77;;;9.90;99.90;;;;;;4936199;29;20260;-75
2024/03/11 15:49:46;;;;;;;10.50;4.47;;;9.90;99.90;;;;;;4935936;29;20232;-75
2024/03/11 15:52:13;;;;;;;8.53;4.07;;;9.90;99.90;;;;;;4935419;29;20208;-75
2024/03/11 15:54:40;;;;;;;9.80;3.87;;;9.80;99.90;;;;;;4935161;29;20614;-74
2024/03/11 15:57:06;;;;;;;8.47;4.50;;;9.80;99.90;;;;;;4935681;29;20243;-74
2024/03/11 15:59:35;;;;;;;9.67;4.20;;;9.70;99.90;;;;;;4935877;29;20260;-74
2024/03/11 16:02:05;;;;;;;10.60;4.43;;;9.80;99.90;;;;;;4936270;29;20212;-75
2024/03/11 16:04:32;;;;;;;11.13;4.67;;;9.80;99.90;;;;;;4935624;29;20291;-78
2024/03/11 16:06:59;;;;;;;9.57;4.70;;;9.80;99.90;;;;;;4935314;29;20215;-74
2024/03/11 16:12:08;;;;;;;12.37;4.70;;;9.90;99.90;;;;;;4935796;29;20293;-78
2024/03/11 16:14:37;;;;;;;10.43;4.00;;;9.90;99.90;;;;;;4935327;29;20209;-75
2024/03/11 16:17:07;;;;;;;11.13;4.57;;;9.90;99.90;;;;;;4935783;29;20307;-75
2024/03/11 16:19:36;;;;;;;12.33;5.07;;;9.90;99.90;;;;;;4935418;29;20271;-74
2024/03/11 16:22:02;;;;;;;10.77;5.07;;;9.90;99.90;;;;;;4935591;29;20212;-75
2024/03/11 16:24:29;;;;;;;12.27;4.90;;;9.90;99.90;;;;;;4935295;29;20738;-74
2024/03/11 16:26:56;;;;;;;9.43;4.97;;;9.80;99.90;;;;;;4935429;29;20230;-76
2024/03/11 16:29:23;;;;;;;12.27;5.20;;;9.80;99.90;;;;;;4942734;29;20207;-74
2024/03/11 16:31:50;;;;;;;13.27;5.20;;;9.70;99.90;;;;;;4935625;29;20615;-79
2024/03/11 16:34:18;;;;;;;14.87;5.70;;;9.80;99.90;;;;;;4935185;29;20220;-76
2024/03/11 16:36:48;;;;;;;11.53;4.80;;;9.80;99.90;;;;;;4935375;29;20248;-77
2024/03/11 16:39:15;;;;;;;11.47;5.80;;;9.90;99.90;;;;;;4935373;29;20319;-76
2024/03/11 16:41:42;;;;;;;11.37;5.23;;;9.90;99.90;;;;;;4935329;29;20239;-80
2024/03/11 16:44:09;;;;;;;10.80;5.23;;;9.80;99.90;;;;;;4934859;29;20208;-78
2024/03/11 16:46:35;;;;;;;13.53;5.13;;;9.90;99.90;;;;;;4935124;29;20233;-78
2024/03/11 16:49:03;;;;;;;12.37;5.70;;;9.90;99.90;;;;;;4934891;29;20705;-79
2024/03/11 16:51:29;;;;;;;12.00;5.70;;;10.00;99.90;;;;;;4934884;29;20213;-77
2024/03/11 16:53:57;;;;;;;15.17;6.40;;;10.00;99.90;;;;;;4935302;29;20260;-74
2024/03/11 16:56:29;;;;;;;15.83;7.73;;;10.10;99.90;;;;;;4935191;29;20204;-81
2024/03/11 16:58:56;;;;;;;21.83;10.30;;;10.10;99.90;;;;;;4935427;29;20260;-79
2024/03/11 17:01:25;;;;;;;26.53;11.33;;;9.90;99.90;;;;;;4935169;29;20215;-75
2024/03/11 17:03:53;;;;;;;26.73;10.23;;;9.90;99.90;;;;;;4935548;29;20725;-78
2024/03/11 17:06:20;;;;;;;25.30;11.07;;;9.90;99.90;;;;;;4939074;29;20303;-77
2024/03/11 17:08:48;;;;;;;31.13;11.00;;;9.90;99.90;;;;;;4939065;29;20315;-77
2024/03/11 17:11:14;;;;;;;31.97;12.70;;;9.80;99.90;;;;;;4938956;29;20537;-77
2024/03/11 17:13:45;;;;;;;43.03;17.10;;;9.80;99.90;;;;;;4939065;29;20211;-77
2024/03/11 17:16:11;;;;;;;28.37;13.13;;;9.80;99.90;;;;;;4939313;29;20272;-77
2024/03/11 17:18:38;;;;;;;40.93;16.40;;;9.80;99.90;;;;;;4939236;29;20240;-77
2024/03/11 17:21:09;;;;;;;35.07;14.93;;;9.80;99.90;;;;;;4938972;29;20251;-77
2024/03/11 17:23:38;;;;;;;39.50;15.20;;;9.80;99.90;;;;;;4939047;29;20213;-77
2024/03/11 17:26:08;;;;;;;62.77;24.03;;;9.70;99.90;;;;;;4938783;29;20308;-77
2024/03/11 17:28:35;;;;;;;42.63;18.17;;;9.70;99.90;;;;;;4939004;29;20240;-78
2024/03/11 17:31:02;;;;;;;39.33;14.47;;;9.70;99.90;;;;;;4938767;29;20213;-77
2024/03/11 17:33:31;;;;;;;41.47;14.13;;;9.60;99.90;;;;;;4938837;29;20232;-78
2024/03/11 17:35:59;;;;;;;34.00;13.33;;;9.70;99.90;;;;;;4933059;29;20263;-76
2024/03/11 17:38:26;;;;;;;35.90;13.07;;;9.70;99.90;;;;;;4932945;29;20247;-77
2024/03/11 17:40:55;;;;;;;32.17;13.23;;;9.60;99.90;;;;;;4937435;29;21174;-78
2024/03/11 17:43:22;;;;;;;35.07;14.00;;;9.60;99.90;;;;;;4956083;29;20300;-77
2024/03/11 17:45:49;;;;;;;35.20;16.37;;;9.50;99.90;;;;;;4947276;29;20629;-76
2024/03/11 17:48:20;;;;;;;35.17;13.10;;;9.40;99.90;;;;;;4936704;29;20260;-76
2024/03/11 17:50:47;;;;;;;29.60;12.90;;;9.40;99.90;;;;;;4936342;29;20201;-78
2024/03/11 17:53:15;;;;;;;36.87;14.83;;;9.40;99.90;;;;;;4938794;29;20669;-77
2024/03/11 17:55:41;;;;;;;36.47;13.20;;;9.40;99.90;;;;;;4948339;29;20670;-79
2024/03/11 17:58:12;;;;;;;36.50;13.70;;;9.40;99.90;;;;;;4936503;29;20588;-77
2024/03/11 18:00:39;;;;;;;32.37;13.07;;;9.30;99.90;;;;;;4936847;29;20204;-79
2024/03/11 18:03:08;;;;;;;35.97;12.73;;;9.40;99.90;;;;;;4936768;29;20223;-80
2024/03/11 18:05:35;;;;;;;37.20;14.93;;;9.50;99.90;;;;;;4936248;29;20208;-78
2024/03/11 18:08:04;;;;;;;31.30;12.97;;;9.50;99.90;;;;;;4937348;29;20593;-83
2024/03/11 18:10:32;;;;;;;35.03;13.80;;;9.50;99.90;;;;;;4936486;29;20217;-80
2024/03/11 18:13:00;;;;;;;35.20;12.77;;;9.50;99.90;;;;;;4936928;29;20205;-78
2024/03/11 18:15:29;;;;;;;36.00;13.47;;;9.50;99.90;;;;;;4935943;29;20546;-81
2024/03/11 18:17:57;;;;;;;35.70;13.33;;;9.40;99.90;;;;;;4936322;29;20311;-76
2024/03/11 18:20:26;;;;;;;33.70;12.43;;;9.40;99.90;;;;;;4936307;29;20240;-78
2024/03/11 18:22:55;;;;;;;33.40;12.80;;;9.40;99.90;;;;;;4927891;29;20276;-79
2024/03/11 18:25:22;;;;;;;34.77;13.97;;;9.40;99.90;;;;;;4918980;29;20213;-79
2024/03/11 18:27:50;;;;;;;31.40;12.23;;;9.40;99.90;;;;;;4918672;29;20257;-80
2024/03/11 18:30:18;;;;;;;37.07;12.93;;;9.40;99.90;;;;;;4918752;29;20293;-79
2024/03/11 18:32:50;;;;;;;31.67;14.00;;;9.50;99.90;;;;;;4918174;29;20205;-79
2024/03/11 18:35:18;;;;;;;32.20;12.77;;;9.50;99.90;;;;;;4918721;29;20213;-79
2024/03/11 18:37:45;;;;;;;29.77;12.67;;;9.40;99.90;;;;;;4918385;29;20718;-79
2024/03/11 18:40:13;;;;;;;26.90;11.77;;;9.30;99.90;;;;;;4918554;29;20241;-79
2024/03/11 18:42:42;;;;;;;28.63;12.57;;;9.40;99.90;;;;;;4918472;29;20220;-79
2024/03/11 18:45:10;;;;;;;34.20;12.93;;;9.30;99.90;;;;;;4918703;29;20213;-79
2024/03/11 18:47:37;;;;;;;33.53;14.03;;;9.30;99.90;;;;;;4918333;29;20265;-79
2024/03/11 18:50:07;;;;;;;33.57;12.47;;;9.30;99.90;;;;;;4918594;29;20245;-79
2024/03/11 18:52:35;;;;;;;34.57;12.33;;;9.30;99.90;;;;;;4926810;29;20681;-79
2024/03/11 18:55:06;;;;;;;29.67;12.07;;;9.30;99.90;;;;;;4920199;29;20265;-80
2024/03/11 18:57:33;;;;;;;27.17;11.67;;;9.30;99.90;;;;;;4918204;29;20639;-80
2024/03/11 19:00:00;;;;;;;38.60;12.50;;;9.30;99.90;;;;;;4917876;29;20808;-81
2024/03/11 19:02:28;;;;;;;31.60;11.70;;;9.30;99.90;;;;;;4918149;29;20213;-80
2024/03/11 19:04:55;;;;;;;29.23;11.83;;;9.30;99.90;;;;;;4918243;29;20305;-80
2024/03/11 19:07:23;;;;;;;26.17;11.13;;;9.30;99.90;;;;;;4918198;29;20308;-80
2024/03/11 19:09:50;;;;;;;32.83;13.07;;;9.20;99.90;;;;;;4918193;29;20667;-81
2024/03/11 19:12:17;;;;;;;36.43;13.17;;;9.10;99.90;;;;;;4917625;29;20221;-81
2024/03/11 19:14:44;;;;;;;33.07;13.40;;;9.20;99.90;;;;;;4917792;29;20274;-80
2024/03/11 19:17:11;;;;;;;32.33;12.07;;;9.20;99.90;;;;;;4918158;29;20257;-80
2024/03/11 19:19:38;;;;;;;29.90;12.50;;;9.10;99.90;;;;;;4917607;29;20237;-81
2024/03/11 19:22:06;;;;;;;37.00;14.07;;;9.10;99.90;;;;;;4918052;29;20248;-81
2024/03/11 19:24:35;;;;;;;29.53;11.50;;;9.10;99.90;;;;;;4918014;29;20213;-80
2024/03/11 19:27:02;;;;;;;26.20;11.13;;;9.30;99.90;;;;;;4917373;29;20214;-80
2024/03/11 19:29:29;;;;;;;33.17;12.23;;;9.40;99.90;;;;;;4917725;29;20216;-80
2024/03/11 19:31:57;;;;;;;31.80;11.63;;;9.40;99.90;;;;;;4917744;29;20216;-79
2024/03/11 19:34:25;;;;;;;31.30;11.93;;;9.30;99.90;;;;;;4917914;29;20709;-80
2024/03/11 19:37:15;;;;;;;35.10;11.93;;;9.30;99.90;;;;;;4917847;29;20216;-80
2024/03/11 19:39:53;;;;;;;30.47;11.90;;;9.30;99.90;;;;;;4917727;29;20280;-78
2024/03/11 19:43:04;;;;;;;34.40;12.43;;;9.30;99.90;;;;;;4917600;29;20248;-80
2024/03/11 19:46:02;;;;;;;37.33;13.03;;;9.20;99.90;;;;;;4877729;29;20644;-79
2024/03/11 19:49:14;;;;;;;31.43;12.00;;;9.20;99.90;;;;;;4877692;29;20600;-79
2024/03/11 19:52:19;;;;;;;27.23;10.40;;;9.30;99.90;;;;;;4916025;29;20269;-79
2024/03/11 19:55:37;;;;;;;33.07;11.17;;;9.20;99.90;;;;;;4917555;29;20364;-79
2024/03/11 19:58:40;;;;;;;28.93;11.03;;;9.20;99.90;;;;;;4916895;29;20241;-80
2024/03/11 20:01:37;;;;;;;29.93;11.17;;;9.20;99.90;;;;;;4910271;29;20257;-80
2024/03/11 20:04:38;;;;;;;28.97;11.43;;;9.10;99.90;;;;;;4900538;29;20232;-79
2024/03/11 20:07:35;;;;;;;30.20;11.43;;;9.10;99.90;;;;;;4896000;29;20215;-78
2024/03/11 20:10:50;;;;;;;37.07;12.83;;;9.10;99.90;;;;;;4917667;29;20595;-79
2024/03/11 20:13:44;;;;;;;42.67;15.90;;;9.10;99.90;;;;;;4917176;29;20286;-79
2024/03/11 20:16:56;;;;;;;40.77;15.27;;;9.10;99.90;;;;;;4917134;29;20249;-79
2024/03/11 20:19:44;;;;;;;38.33;15.17;;;9.10;99.90;;;;;;4916905;29;20328;-79
2024/03/11 20:22:46;;;;;;;32.87;13.87;;;9.00;99.90;;;;;;4919640;29;20611;-79
2024/03/11 20:25:50;;;;;;;31.20;11.70;;;9.10;99.90;;;;;;4918415;29;20280;-79
2024/03/11 20:28:24;;;;;;;30.10;12.20;;;9.00;99.90;;;;;;4916756;29;20229;-80
2024/03/11 20:30:58;;;;;;;31.30;11.53;;;9.10;99.90;;;;;;4917138;29;20208;-80
2024/03/11 20:33:25;;;;;;;33.93;11.87;;;9.10;99.90;;;;;;4916699;29;20281;-79
2024/03/11 20:35:53;;;;;;;25.50;10.93;;;9.10;99.90;;;;;;4916880;29;20240;-80
2024/03/11 20:38:24;;;;;;;29.47;10.97;;;9.10;99.90;;;;;;4916353;29;20706;-80
2024/03/11 20:40:52;;;;;;;26.90;10.07;;;9.10;99.90;;;;;;4916025;29;20320;-79
2024/03/11 20:43:19;;;;;;;31.30;11.07;;;9.20;99.90;;;;;;4916306;29;20237;-80
2024/03/11 20:45:46;;;;;;;24.97;10.23;;;9.20;99.90;;;;;;4916506;29;20245;-82
2024/03/11 20:48:14;;;;;;;24.47;10.43;;;9.20;99.90;;;;;;4916416;29;20260;-80
2024/03/11 20:50:43;;;;;;;28.63;11.40;;;9.20;99.90;;;;;;4916448;29;20309;-79
2024/03/11 20:53:13;;;;;;;31.63;11.23;;;9.20;99.90;;;;;;4916434;29;20212;-80
2024/03/11 20:55:41;;;;;;;30.90;11.00;;;9.20;99.90;;;;;;4916478;29;20612;-80
2024/03/11 20:58:09;;;;;;;28.23;11.70;;;9.20;99.90;;;;;;4916371;29;20229;-80
2024/03/11 21:00:37;;;;;;;34.07;10.67;;;9.20;99.90;;;;;;4916443;29;20281;-80
2024/03/11 21:03:06;;;;;;;33.20;10.40;;;9.20;99.90;;;;;;4916761;29;20209;-80
2024/03/11 21:05:34;;;;;;;26.97;10.93;;;9.10;99.90;;;;;;4916618;29;20296;-81
2024/03/11 21:08:02;;;;;;;31.90;11.60;;;9.10;99.90;;;;;;4916508;29;20281;-80
2024/03/11 21:10:29;;;;;;;27.77;10.63;;;9.10;99.90;;;;;;4916474;29;20209;-80
2024/03/11 21:12:56;;;;;;;31.70;11.67;;;9.20;99.90;;;;;;4916327;29;20213;-80
2024/03/11 21:15:24;;;;;;;31.90;12.03;;;9.10;99.90;;;;;;4916248;29;20265;-80
2024/03/11 21:17:51;;;;;;;32.00;11.20;;;9.00;99.90;;;;;;4916921;29;20260;-81
2024/03/11 21:20:44;;;;;;;30.10;11.87;;;9.00;99.90;;;;;;4916012;29;20240;-80
2024/03/11 21:23:24;;;;;;;30.83;11.17;;;9.10;99.90;;;;;;4916014;29;20217;-80
2024/03/11 21:26:04;;;;;;;31.93;11.57;;;9.20;99.90;;;;;;4916307;29;20211;-80
2024/03/11 21:28:37;;;;;;;32.70;10.80;;;9.20;99.90;;;;;;4915976;29;20714;-80
2024/03/11 21:31:05;;;;;;;27.57;10.77;;;9.30;99.90;;;;;;4916390;29;20999;-80
2024/03/11 21:33:33;;;;;;;31.27;10.87;;;9.30;99.90;;;;;;4916237;29;20603;-81
2024/03/11 21:35:59;;;;;;;26.33;11.37;;;9.10;99.90;;;;;;4916130;29;20671;-81
2024/03/11 21:38:28;;;;;;;30.63;11.70;;;9.10;99.90;;;;;;4929007;29;20232;-81
2024/03/11 21:40:55;;;;;;;38.53;12.47;;;9.20;99.90;;;;;;4934459;29;20319;-81
2024/03/11 21:43:22;;;;;;;28.53;11.03;;;9.20;99.90;;;;;;4934721;29;20212;-81
2024/03/11 21:45:49;;;;;;;27.47;10.83;;;9.20;99.90;;;;;;4934484;29;20698;-81
2024/03/11 21:48:15;;;;;;;26.77;9.93;;;9.10;99.90;;;;;;4934363;29;20327;-81
2024/03/11 21:50:42;;;;;;;31.27;9.83;;;9.00;99.90;;;;;;4936302;29;20251;-81
2024/03/11 21:53:10;;;;;;;25.13;9.23;;;9.00;99.90;;;;;;4937634;29;20627;-81
2024/03/11 21:55:41;;;;;;;26.20;10.13;;;9.10;99.90;;;;;;4938136;29;20244;-81
2024/03/11 21:58:08;;;;;;;27.27;10.23;;;9.20;99.90;;;;;;4938014;29;20312;-81
2024/03/11 22:00:36;;;;;;;28.27;10.40;;;9.10;99.90;;;;;;4938045;29;20264;-81
2024/03/11 22:03:03;;;;;;;26.63;9.27;;;9.00;99.90;;;;;;4938030;29;20209;-81
2024/03/11 22:05:30;;;;;;;36.23;8.97;;;9.00;99.90;;;;;;4937968;29;20240;-81
2024/03/11 22:07:57;;;;;;;27.03;8.03;;;9.00;99.90;;;;;;4938043;29;20293;-81
2024/03/11 22:10:23;;;;;;;25.97;9.20;;;9.00;99.90;;;;;;4937917;29;20311;-81
2024/03/11 22:12:52;;;;;;;22.60;8.27;;;9.00;99.90;;;;;;4937509;29;20236;-81